createdAt,value
2019-01-09T00:03:11.568Z,31.63
2019-01-09T00:07:18.285Z,32.97
2019-01-09T00:11:26.872Z,25.63
2019-01-09T00:16:00.452Z,29.97
2019-01-09T00:20:07.914Z,29.23
2019-01-09T00:24:16.724Z,24.50
2019-01-09T00:28:25.141Z,31.87
2019-01-09T00:32:31.740Z,31.23
2019-01-09T00:36:38.328Z,29.13
2019-01-09T00:40:47.001Z,28.60
2019-01-09T00:44:54.037Z,32.43
2019-01-09T00:49:00.628Z,29.27
2019-01-09T00:53:07.106Z,29.47
2019-01-09T00:57:14.545Z,30.57
2019-01-09T01:01:22.844Z,31.80
2019-01-09T01:05:59.959Z,28.97
2019-01-09T01:10:23.616Z,29.80
2019-01-09T01:14:41.721Z,29.50
2019-01-09T01:19:02.373Z,29.67
2019-01-09T01:23:21.136Z,27.90
2019-01-09T01:27:39.507Z,29.20
2019-01-09T01:32:24.060Z,28.27
2019-01-09T01:36:57.528Z,25.87
2019-01-09T01:41:29.669Z,27.73
2019-01-09T01:45:51.712Z,30.83
2019-01-09T01:50:23.520Z,26.40
2019-01-09T01:55:00.617Z,23.83
2019-01-09T01:59:14.704Z,27.80
2019-01-09T02:03:36.443Z,20.70
2019-01-09T02:08:25.393Z,25.63
2019-01-09T02:12:45.005Z,28.17
2019-01-09T02:17:24.698Z,27.77
2019-01-09T02:21:50.264Z,26.10
2019-01-09T02:26:14.010Z,28.33
2019-01-09T02:30:29.509Z,29.83
2019-01-09T02:34:36.922Z,27.33
2019-01-09T02:38:43.272Z,26.63
2019-01-09T02:42:49.944Z,26.20
2019-01-09T02:46:56.258Z,24.87
2019-01-09T02:51:03.542Z,27.97
2019-01-09T02:55:10.242Z,28.77
2019-01-09T02:59:16.833Z,27.67
2019-01-09T03:03:23.268Z,29.33
2019-01-09T03:07:30.537Z,29.30
2019-01-09T03:15:48.710Z,29.23
2019-01-09T03:20:06.222Z,25.17
2019-01-09T03:24:13.732Z,26.10
2019-01-09T03:28:40.027Z,28.93
2019-01-09T03:32:47.223Z,25.10
2019-01-09T03:36:53.569Z,22.57
2019-01-09T03:41:00.700Z,25.47
2019-01-09T03:45:07.772Z,28.60
2019-01-09T03:49:15.784Z,29.43
2019-01-09T03:53:23.827Z,30.50
2019-01-09T03:57:31.627Z,30.55
2019-01-09T04:01:38.154Z,25.97
2019-01-09T04:05:44.662Z,21.17
2019-01-09T04:09:51.370Z,29.33
2019-01-09T04:14:02.832Z,30.30
2019-01-09T04:18:09.956Z,27.93
2019-01-09T04:22:39.059Z,26.67
2019-01-09T04:26:45.434Z,28.87
2019-01-09T04:30:52.147Z,31.20
2019-01-09T04:34:58.953Z,28.70
2019-01-09T04:39:07.511Z,28.53
2019-01-09T04:43:14.909Z,26.67
2019-01-09T04:47:22.238Z,26.10
2019-01-09T04:51:28.508Z,30.40
2019-01-09T04:55:34.856Z,29.10
2019-01-09T04:59:41.511Z,26.70
2019-01-09T05:03:50.292Z,29.43
2019-01-09T05:07:56.228Z,27.13
2019-01-09T05:12:06.688Z,24.23
2019-01-09T05:16:13.204Z,26.10
2019-01-09T05:20:20.774Z,29.17
2019-01-09T05:28:34.300Z,29.27
2019-01-09T05:32:40.798Z,30.87
2019-01-09T05:36:48.120Z,28.67
2019-01-09T05:40:54.577Z,30.03
2019-01-09T05:45:05.208Z,27.33
2019-01-09T05:49:13.313Z,30.80
2019-01-09T05:53:21.318Z,24.33
2019-01-09T05:57:30.693Z,28.40
2019-01-09T06:01:37.219Z,29.23
2019-01-09T06:05:43.773Z,28.17
2019-01-09T06:09:50.905Z,29.53
2019-01-09T06:13:58.128Z,28.17
2019-01-09T06:18:06.418Z,30.57
2019-01-09T06:22:15.010Z,32.93
2019-01-09T06:26:25.127Z,30.50
2019-01-09T06:30:52.483Z,27.50
2019-01-09T06:34:58.876Z,29.37
2019-01-09T06:43:14.691Z,24.63
2019-01-09T06:47:21.113Z,28.27
2019-01-09T06:51:27.533Z,31.20
2019-01-09T06:55:35.906Z,29.57
2019-01-09T06:59:44.043Z,31.43
2019-01-09T07:03:50.382Z,31.03
2019-01-09T07:12:04.839Z,31.20
2019-01-09T07:16:11.497Z,28.20
2019-01-09T07:20:21.216Z,26.03
2019-01-09T07:24:29.478Z,28.70
2019-01-09T07:28:35.797Z,36.80
2019-01-09T07:32:42.937Z,32.17
2019-01-09T07:36:51.867Z,31.60
2019-01-09T07:41:01.178Z,28.77
2019-01-09T07:45:09.081Z,25.60
2019-01-09T07:49:19.994Z,29.57
2019-01-09T07:53:26.798Z,34.70
2019-01-09T07:57:34.474Z,33.17
2019-01-09T08:01:41.932Z,37.03
2019-01-09T08:05:49.614Z,31.63
2019-01-09T08:09:55.952Z,31.00
2019-01-09T08:14:02.739Z,32.87
2019-01-09T08:18:09.206Z,30.70
2019-01-09T08:22:16.515Z,31.33
2019-01-09T08:26:27.383Z,32.00
2019-01-09T08:30:33.701Z,30.80
2019-01-09T08:34:40.281Z,31.23
2019-01-09T08:38:48.016Z,29.27
2019-01-09T08:42:55.242Z,30.57
2019-01-09T08:47:25.952Z,25.33
2019-01-09T08:51:35.069Z,29.17
2019-01-09T08:56:02.931Z,29.97
2019-01-09T09:00:11.263Z,26.87
2019-01-09T09:04:20.568Z,28.23
2019-01-09T09:08:28.026Z,29.43
2019-01-09T09:12:34.541Z,25.23
2019-01-09T09:16:41.983Z,25.60
2019-01-09T09:20:48.472Z,29.60
2019-01-09T09:24:54.850Z,28.20
2019-01-09T09:29:02.585Z,27.13
2019-01-09T09:33:08.992Z,27.77
2019-01-09T09:37:18.974Z,26.40
2019-01-09T09:41:25.084Z,26.90
2019-01-09T09:49:39.240Z,23.53
2019-01-09T09:53:46.342Z,22.37
2019-01-09T09:57:52.631Z,24.07
2019-01-09T10:01:59.551Z,24.60
2019-01-09T10:06:09.105Z,17.57
2019-01-09T10:10:16.519Z,24.27
2019-01-09T10:14:22.989Z,24.47
2019-01-09T10:18:29.581Z,26.10
2019-01-09T10:22:36.921Z,27.13
2019-01-09T10:26:43.641Z,22.27
2019-01-09T10:30:51.160Z,18.73
2019-01-09T10:35:00.274Z,23.10
2019-01-09T10:39:09.319Z,25.67
2019-01-09T10:43:15.653Z,24.43
2019-01-09T10:47:23.430Z,23.30
2019-01-09T10:51:33.139Z,23.13
2019-01-09T10:56:01.692Z,22.13
2019-01-09T11:00:11.610Z,25.33
2019-01-09T11:04:20.561Z,24.97
2019-01-09T11:08:26.996Z,24.63
2019-01-09T11:12:33.371Z,18.33
2019-01-09T11:16:40.293Z,18.17
2019-01-09T11:20:46.676Z,25.17
2019-01-09T11:24:54.614Z,23.47
2019-01-09T11:29:02.566Z,24.03
2019-01-09T11:33:12.216Z,23.87
2019-01-09T11:42:05.650Z,20.17
2019-01-09T11:46:12.077Z,23.30
2019-01-09T11:50:41.015Z,26.57
2019-01-09T11:54:47.501Z,24.07
2019-01-09T11:58:54.502Z,27.53
2019-01-09T12:03:01.801Z,26.03
2019-01-09T12:07:08.159Z,29.93
2019-01-09T12:11:15.546Z,28.43
2019-01-09T12:15:24.757Z,32.10
2019-01-09T12:19:34.440Z,34.20
2019-01-09T12:23:42.882Z,31.43
2019-01-09T12:27:49.323Z,33.90
2019-01-09T12:31:55.840Z,36.33
2019-01-09T12:36:02.453Z,35.30
2019-01-09T12:40:09.578Z,35.47
2019-01-09T12:44:16.533Z,38.97
2019-01-09T12:48:27.153Z,39.53
2019-01-09T12:52:33.867Z,39.23
2019-01-09T12:56:41.130Z,41.13
2019-01-09T13:00:48.225Z,38.57
2019-01-09T13:04:58.405Z,40.80
2019-01-09T13:09:11.498Z,37.80
2019-01-09T13:13:19.823Z,39.90
2019-01-09T13:17:31.069Z,41.00
2019-01-09T13:21:37.692Z,40.33
2019-01-09T13:25:44.080Z,38.23
2019-01-09T13:29:54.233Z,38.43
2019-01-09T13:34:00.589Z,40.67
2019-01-09T13:38:08.247Z,42.13
2019-01-09T13:42:17.467Z,38.77
2019-01-09T13:46:23.941Z,44.07
2019-01-09T13:50:34.866Z,39.77
2019-01-09T13:54:42.159Z,37.07
2019-01-09T13:58:51.781Z,38.30
2019-01-09T14:02:58.243Z,39.17
2019-01-09T14:07:05.543Z,37.00
2019-01-09T14:11:12.078Z,34.57
2019-01-09T14:15:19.840Z,32.63
2019-01-09T14:19:26.365Z,31.30
2019-01-09T14:23:35.197Z,31.43
2019-01-09T14:27:42.775Z,33.50
2019-01-09T14:31:49.475Z,30.03
2019-01-09T14:35:58.686Z,23.93
2019-01-09T14:40:06.911Z,29.37
2019-01-09T14:44:17.095Z,30.60
2019-01-09T14:48:23.451Z,30.47
2019-01-09T14:52:30.126Z,32.47
2019-01-09T14:56:36.441Z,23.67
2019-01-09T15:00:43.529Z,29.47
2019-01-09T15:04:53.604Z,26.50
2019-01-09T15:09:00.086Z,25.60
2019-01-09T15:13:10.567Z,30.83
2019-01-09T15:17:16.934Z,28.37
2019-01-09T15:21:23.295Z,30.70
2019-01-09T15:25:30.550Z,25.50
2019-01-09T15:29:36.884Z,30.20
2019-01-09T15:33:44.744Z,30.53
2019-01-09T15:38:12.301Z,30.13
2019-01-09T15:42:19.564Z,30.03
2019-01-09T15:46:26.002Z,24.07
2019-01-09T15:50:33.966Z,29.90
2019-01-09T15:54:42.020Z,31.10
2019-01-09T15:58:48.644Z,31.50
2019-01-09T16:02:55.230Z,31.57
2019-01-09T16:07:06.568Z,30.83
2019-01-09T16:11:15.667Z,24.13
2019-01-09T16:15:25.493Z,31.87
2019-01-09T16:19:34.516Z,32.00
2019-01-09T16:23:39.839Z,20.10
2019-01-09T16:27:46.202Z,27.13
2019-01-09T16:31:52.712Z,27.30
2019-01-09T16:35:59.070Z,29.37
2019-01-09T16:40:08.546Z,27.63
2019-01-09T16:44:15.428Z,27.23
2019-01-09T16:48:22.303Z,28.67
2019-01-09T16:52:28.766Z,26.43
2019-01-09T16:56:35.851Z,30.53
2019-01-09T17:00:42.683Z,31.97
2019-01-09T17:04:49.184Z,32.47
2019-01-09T17:08:55.919Z,33.43
2019-01-09T17:17:29.479Z,33.87
2019-01-09T17:21:38.110Z,32.33
2019-01-09T17:25:47.696Z,29.50
2019-01-09T17:29:56.514Z,33.53
2019-01-09T17:34:23.524Z,30.37
2019-01-09T17:38:29.559Z,34.77
2019-01-09T17:42:36.246Z,33.40
2019-01-09T17:46:50.326Z,33.27
2019-01-09T17:50:56.747Z,23.27
2019-01-09T17:55:04.647Z,32.00
2019-01-09T17:59:11.261Z,35.07
2019-01-09T18:03:18.174Z,33.03
2019-01-09T18:07:25.516Z,32.77
2019-01-09T18:11:32.024Z,32.50
2019-01-09T18:15:38.458Z,31.70
2019-01-09T18:19:46.668Z,34.90
2019-01-09T18:23:53.719Z,33.40
2019-01-09T18:28:00.656Z,35.27
2019-01-09T18:32:45.722Z,32.37
2019-01-09T18:37:10.007Z,31.27
2019-01-09T18:41:45.269Z,30.83
2019-01-09T18:46:19.936Z,26.07
2019-01-09T18:50:41.081Z,27.13
2019-01-09T18:54:47.785Z,30.83
2019-01-09T18:58:56.039Z,30.93
2019-01-09T19:03:04.552Z,32.00
2019-01-09T19:07:12.385Z,28.80
2019-01-09T19:11:19.989Z,31.47
2019-01-09T19:15:28.461Z,30.90
2019-01-09T19:19:35.058Z,32.37
2019-01-09T19:23:41.466Z,35.40
2019-01-09T19:27:55.173Z,34.37
2019-01-09T19:32:01.724Z,33.13
2019-01-09T19:36:09.441Z,35.67
2019-01-09T19:40:17.748Z,35.97
2019-01-09T19:44:30.688Z,33.07
2019-01-09T19:48:37.248Z,32.93
2019-01-09T19:52:54.601Z,33.53
2019-01-09T19:57:01.461Z,32.50
2019-01-09T20:01:10.302Z,32.70
2019-01-09T20:05:19.564Z,33.00
2019-01-09T20:09:38.905Z,35.03
2019-01-09T20:13:45.775Z,29.70
2019-01-09T20:17:55.137Z,31.40
2019-01-09T20:22:02.753Z,21.20
2019-01-09T20:26:09.976Z,32.70
2019-01-09T20:30:20.995Z,29.57
2019-01-09T20:34:27.659Z,28.13
2019-01-09T20:38:35.355Z,31.17
2019-01-09T20:42:41.845Z,30.20
2019-01-09T20:46:48.236Z,30.07
2019-01-09T20:50:54.999Z,30.13
2019-01-09T20:55:22.956Z,29.53
2019-01-09T20:59:35.192Z,30.93
2019-01-09T21:03:42.372Z,27.43
2019-01-09T21:07:49.044Z,28.57
2019-01-09T21:11:58.814Z,29.73
2019-01-09T21:16:05.859Z,25.87
2019-01-09T21:20:14.838Z,28.73
2019-01-09T21:29:03.427Z,32.07
2019-01-09T21:33:10.969Z,27.03
2019-01-09T21:37:17.725Z,31.57
2019-01-09T21:41:28.853Z,30.83
2019-01-09T21:45:39.065Z,27.73
2019-01-09T21:49:46.182Z,26.73
2019-01-09T21:53:53.327Z,29.37
2019-01-09T21:58:01.347Z,27.90
2019-01-09T22:02:08.556Z,27.47
2019-01-09T22:06:15.453Z,28.03
2019-01-09T22:10:26.134Z,30.67
2019-01-09T22:14:33.646Z,29.20
2019-01-09T22:18:40.709Z,30.27
2019-01-09T22:22:48.395Z,31.80
2019-01-09T22:26:54.842Z,28.67
2019-01-09T22:31:02.304Z,27.43
2019-01-09T22:35:10.424Z,13.67
2019-01-09T22:39:16.761Z,30.47
2019-01-09T22:43:24.893Z,24.70
2019-01-09T22:47:31.244Z,29.70
2019-01-09T22:51:42.578Z,18.60
2019-01-09T22:55:48.930Z,28.20
2019-01-09T22:59:55.593Z,26.20
2019-01-09T23:04:22.593Z,25.77
2019-01-09T23:08:30.014Z,27.73
2019-01-09T23:12:36.610Z,28.63
2019-01-09T23:17:22.869Z,28.90
2019-01-09T23:21:30.824Z,24.63
2019-01-09T23:25:37.941Z,25.50
2019-01-09T23:29:47.545Z,28.27
2019-01-09T23:33:54.483Z,29.20
2019-01-09T23:38:00.772Z,26.10
2019-01-09T23:42:30.564Z,30.50
2019-01-09T23:46:36.458Z,26.73
2019-01-09T23:50:44.662Z,24.07
2019-01-09T23:54:52.057Z,28.60
2019-01-09T23:58:59.746Z,30.67
